Alkol, West Virginia
Current Conditions -  °F | °C
As of 3:54 PM on Saturday 25 Oct 2014 (Local Time) from KCRW Reporting Station
Broken Clouds Broken Clouds  
Wind Chill: 67°   Ceiling: 3600
Heat Index: 67°   Visibility: 10mi
Dew Point: 48°   Wind: 12mph
Humidity: 51%   Direction: 240°WSW
Pressure: 29.93"   Gusts: NA
Location:  38.16°N, 81.92°W
Report Text: KCRW 251954Z 24010KT 10SM BKN036 BKN050 BKN085 19/09 A2993 RMK AO2 SLP133 T01940089 $
Loading
Personal Weather Stations






























Interactive Weather Map
Tropical Storm Tracking
New forecast layout! Learn more

10-Day Weather Forecast

Advertisements
Track Severe Weather on mobile